Time;durP1;ratioP1;P1;durP2;ratioP2;P2;SDS_P1;SDS_P2;PMS_P1;PMS_P2;Temp;Humidity;BMP_temperature;BMP_pressure;BME280_temperature;BME280_humidity;BME280_pressure;Samples;Min_cycle;Max_cycle;Signal;HPM_P1;HPM_P2
2022/03/23 00:00:18;;;;;;;5.47;2.15;;;;;;;3.55;48.02;94051.59;5030852;28;20049;-83
2022/03/23 00:02:47;;;;;;;4.85;2.38;;;;;;;3.01;48.54;93973.66;5031432;28;20053;-84
2022/03/23 00:05:16;;;;;;;6.28;2.30;;;;;;;3.31;48.95;94022.47;5031120;28;20049;-83
2022/03/23 00:07:43;;;;;;;7.38;2.60;;;;;;;2.87;49.44;93967.34;5031121;28;20056;-84
2022/03/23 00:10:11;;;;;;;10.55;2.83;;;;;;;3.07;49.86;94026.38;5031062;28;20049;-86
2022/03/23 00:12:38;;;;;;;6.70;3.00;;;;;;;3.00;49.58;94012.69;5030929;28;20103;-85
2022/03/23 00:15:06;;;;;;;6.15;2.85;;;;;;;3.20;49.57;94048.91;5030815;28;20046;-86
2022/03/23 00:17:33;;;;;;;5.47;2.50;;;;;;;3.15;49.64;94033.28;5030892;28;20053;-85
2022/03/23 00:20:04;;;;;;;6.35;2.20;;;;;;;3.14;50.01;94036.78;5030495;28;20056;-85
2022/03/23 00:22:31;;;;;;;10.13;3.05;;;;;;;2.65;50.58;93970.09;5030710;28;20140;-85
2022/03/23 00:24:58;;;;;;;5.75;2.33;;;;;;;3.05;50.25;94036.69;5030705;28;20072;-84
2022/03/23 00:27:25;;;;;;;4.88;2.40;;;;;;;2.77;49.99;93997.81;5030968;28;20128;-84
2022/03/23 00:29:52;;;;;;;5.47;1.83;;;;;;;2.21;49.60;93925.09;5030571;28;20524;-83
2022/03/23 00:32:19;;;;;;;6.60;2.10;;;;;;;3.08;49.41;94048.28;5030526;28;20056;-84
2022/03/23 00:34:46;;;;;;;6.75;1.88;;;;;;;2.70;49.42;93986.66;5030875;28;20136;-83
2022/03/23 00:37:15;;;;;;;3.90;2.08;;;;;;;3.07;49.43;94039.06;5030533;28;20053;-82
2022/03/23 00:39:42;;;;;;;8.25;2.58;;;;;;;2.88;48.93;94007.78;5030694;28;20146;-82
2022/03/23 00:42:09;;;;;;;5.75;2.47;;;;;;;2.98;49.09;94040.72;5030476;28;20045;-82
2022/03/23 00:44:36;;;;;;;5.22;1.83;;;;;;;2.10;48.84;93907.53;5030430;28;20055;-82
2022/03/23 00:47:03;;;;;;;2.67;1.50;;;;;;;3.05;48.83;94033.31;5030377;28;20061;-82
2022/03/23 00:49:30;;;;;;;7.30;2.10;;;;;;;2.99;48.86;94055.00;5030430;28;20387;-81
2022/03/23 00:51:57;;;;;;;8.25;1.90;;;;;;;2.90;48.11;94025.41;5029963;28;20503;-82
2022/03/23 00:54:25;;;;;;;7.47;2.30;;;;;;;3.07;47.86;94059.38;5029459;28;20140;-81
2022/03/23 00:56:52;;;;;;;5.03;2.15;;;;;;;3.09;47.94;94038.94;5029308;28;20518;-80
2022/03/23 00:59:19;;;;;;;3.75;1.85;;;;;;;3.09;47.71;94046.56;5029440;28;20899;-80
2022/03/23 01:01:47;;;;;;;6.25;1.90;;;;;;;3.12;47.83;94057.22;5029505;28;20155;-79
2022/03/23 01:04:14;;;;;;;3.97;1.50;;;;;;;3.14;46.76;94060.41;5029485;28;20075;-79
2022/03/23 01:06:41;;;;;;;7.00;1.90;;;;;;;2.79;47.15;94013.72;5029964;28;20057;-79
2022/03/23 01:09:10;;;;;;;5.65;2.10;;;;;;;2.95;46.80;94043.53;5029350;28;20068;-80
2022/03/23 01:11:39;;;;;;;5.55;1.80;;;;;;;3.15;46.84;94068.84;5029155;28;20049;-81
2022/03/23 01:14:06;;;;;;;4.03;1.70;;;;;;;3.16;46.80;94068.66;5029616;28;20084;-81
2022/03/23 01:16:34;;;;;;;4.60;2.22;;;;;;;2.97;46.01;94051.03;5029423;28;20053;-82
2022/03/23 01:19:01;;;;;;;3.90;1.90;;;;;;;2.96;45.87;94042.59;5030068;28;20060;-80
2022/03/23 01:21:28;;;;;;;3.92;2.05;;;;;;;3.00;46.04;94064.22;5029579;28;20053;-81
2022/03/23 01:23:55;;;;;;;5.85;2.28;;;;;;;2.83;45.78;94030.25;5029073;28;20060;-81
2022/03/23 01:26:22;;;;;;;4.75;1.98;;;;;;;3.06;45.86;94068.72;5029987;28;20046;-82
2022/03/23 01:28:51;;;;;;;5.20;1.77;;;;;;;2.42;46.60;94000.13;5029773;28;20092;-82
2022/03/23 01:31:17;;;;;;;8.27;2.67;;;;;;;2.94;46.84;94090.16;5031400;28;20049;-82
2022/03/23 01:33:44;;;;;;;6.15;2.50;;;;;;;2.75;46.75;94060.59;5030109;28;20125;-82
2022/03/23 01:36:11;;;;;;;4.13;1.92;;;;;;;2.71;46.70;94077.03;5031730;28;20060;-82
2022/03/23 01:38:38;;;;;;;5.60;1.85;;;;;;;2.44;46.55;94018.53;5033587;28;20490;-82
2022/03/23 01:41:06;;;;;;;4.03;1.50;;;;;;;3.00;47.04;94098.97;5033833;28;20053;-82
2022/03/23 01:43:33;;;;;;;6.07;1.73;;;;;;;2.35;47.55;94002.41;5033251;28;20440;-83
2022/03/23 01:46:02;;;;;;;6.00;1.90;;;;;;;2.83;47.40;94093.69;5033139;28;20058;-83
2022/03/23 01:48:29;;;;;;;4.82;1.65;;;;;;;2.18;47.08;93983.66;5033481;28;20053;-83
2022/03/23 01:50:56;;;;;;;6.00;1.75;;;;;;;1.80;47.72;93958.28;5033831;28;20049;-83
2022/03/23 01:53:23;;;;;;;5.70;1.88;;;;;;;1.64;47.40;93918.34;5033558;28;20053;-83
2022/03/23 01:55:51;;;;;;;6.60;1.92;;;;;;;2.70;48.73;94104.16;5032598;28;20054;-83
2022/03/23 01:58:20;;;;;;;3.35;1.58;;;;;;;2.69;48.13;94086.53;5018679;28;20100;-84
2022/03/23 02:00:47;;;;;;;7.75;2.22;;;;;;;2.50;48.29;94067.91;5029527;28;20045;-83
2022/03/23 02:03:15;;;;;;;5.90;1.92;;;;;;;2.65;48.48;94073.34;5033279;28;20118;-82
2022/03/23 02:05:42;;;;;;;6.50;2.15;;;;;;;2.08;47.87;93998.13;5033271;28;20045;-81
2022/03/23 02:08:10;;;;;;;5.38;1.95;;;;;;;2.26;48.48;94028.59;5033080;28;20053;-83
2022/03/23 02:10:38;;;;;;;4.28;1.80;;;;;;;2.48;49.24;94083.25;5033513;28;20401;-84
2022/03/23 02:13:05;;;;;;;5.47;2.25;;;;;;;2.01;49.34;94018.13;5033521;28;20041;-82
2022/03/23 02:15:32;;;;;;;4.05;1.80;;;;;;;1.98;49.94;94021.72;5032841;28;20057;-84
2022/03/23 02:17:59;;;;;;;6.03;1.77;;;;;;;2.22;49.42;94047.56;5033419;28;20128;-83
2022/03/23 02:20:27;;;;;;;5.60;1.80;;;;;;;2.19;50.26;94046.09;5032868;28;20499;-84
2022/03/23 02:22:56;;;;;;;5.78;2.20;;;;;;;1.78;50.44;93992.28;5033135;28;20414;-83
2022/03/23 02:25:26;;;;;;;4.10;1.80;;;;;;;2.16;49.98;94046.38;5033018;28;20057;-83
2022/03/23 02:27:54;;;;;;;6.18;2.00;;;;;;;1.65;51.01;93968.06;5033157;28;20403;-84
2022/03/23 02:30:25;;;;;;;6.25;2.50;;;;;;;2.19;51.68;94078.25;5032905;28;20140;-84
2022/03/23 02:32:52;;;;;;;5.15;2.20;;;;;;;1.31;51.90;93930.53;5032768;28;20050;-83
2022/03/23 02:35:19;;;;;;;7.00;2.22;;;;;;;1.71;52.06;94013.09;5032485;28;20414;-83
2022/03/23 02:37:47;;;;;;;6.85;2.00;;;;;;;2.05;52.74;94074.41;5033057;28;20049;-81
2022/03/23 02:40:15;;;;;;;5.53;2.03;;;;;;;2.02;52.65;94054.38;5032781;28;20140;-79
2022/03/23 02:42:43;;;;;;;6.40;2.25;;;;;;;1.83;52.95;94045.88;5032836;28;20057;-80
2022/03/23 02:45:11;;;;;;;4.85;2.22;;;;;;;2.05;53.20;94082.00;5032669;28;20081;-81
2022/03/23 02:47:38;;;;;;;6.07;1.92;;;;;;;1.69;53.63;94036.97;5032038;28;20068;-80
2022/03/23 02:50:06;;;;;;;7.18;3.03;;;;;;;1.90;54.27;94084.94;5032311;28;20060;-80
2022/03/23 02:52:33;;;;;;;5.00;2.78;;;;;;;1.87;53.77;94082.69;5031932;28;20483;-80
2022/03/23 03:03:50;;;;;;;7.28;2.55;;;;;;;1.24;55.34;94040.84;5031958;28;20107;-82
2022/03/23 03:06:17;;;;;;;8.13;2.72;;;;;;;1.61;55.88;94090.81;5032688;28;20060;-82
2022/03/23 03:08:47;;;;;;;6.85;2.40;;;;;;;1.29;56.10;94054.69;5032067;28;20059;-81
2022/03/23 03:11:15;;;;;;;10.98;3.28;;;;;;;1.44;56.18;94060.16;5031759;28;20049;-82
2022/03/23 03:13:45;;;;;;;6.40;2.60;;;;;;;1.60;55.90;94090.03;5031531;28;20449;-82
2022/03/23 03:16:12;;;;;;;8.45;2.25;;;;;;;1.47;57.27;94081.88;5031205;28;20752;-81
2022/03/23 03:18:39;;;;;;;9.07;3.38;;;;;;;0.89;57.70;94040.34;5031605;28;20129;-81
2022/03/23 03:21:07;;;;;;;7.15;2.40;;;;;;;0.68;58.24;94013.41;5028859;28;20074;-81
2022/03/23 03:23:35;;;;;;;10.15;2.92;;;;;;;1.24;59.28;94106.63;5031691;28;20046;-81
2022/03/23 03:26:05;;;;;;;10.68;2.90;;;;;;;0.51;59.16;94007.25;5031182;28;20491;-82
2022/03/23 03:28:43;;;;;;;25.08;4.68;;;;;;;0.75;59.35;94017.00;5030855;28;20080;-83
2022/03/23 03:31:15;;;;;;;13.52;3.40;;;;;;;1.09;59.40;94063.97;5028856;28;20045;-82
2022/03/23 03:33:46;;;;;;;6.50;2.53;;;;;;;0.61;60.21;94030.81;5031876;28;20147;-83
2022/03/23 03:36:16;;;;;;;27.60;6.07;;;;;;;0.75;60.57;94023.81;5031307;28;20570;-82
2022/03/23 03:38:43;;;;;;;11.57;3.28;;;;;;;1.02;60.77;94081.38;5031687;28;20057;-83
2022/03/23 03:41:11;;;;;;;7.13;2.88;;;;;;;0.59;61.03;94029.34;5030414;28;20056;-82
2022/03/23 03:43:39;;;;;;;8.40;3.33;;;;;;;0.56;61.65;94030.41;5031742;28;20541;-83
2022/03/23 03:46:16;;;;;;;21.60;4.20;;;;;;;0.95;61.37;94092.16;5030810;28;20421;-83
2022/03/23 03:48:50;;;;;;;;;;;;;;;1.17;61.36;94098.75;5031438;28;20442;-85
2022/03/23 03:53:53;;;;;;;7.30;2.80;;;;;;;0.52;62.17;94017.22;5039711;23;20061;-81
2022/03/23 03:56:31;;;;;;;7.22;2.60;;;;;;;0.18;62.74;93966.16;5031120;28;20152;-83
2022/03/23 03:58:59;;;;;;;6.15;2.65;;;;;;;0.60;62.48;94018.31;5030976;28;20071;-81
2022/03/23 04:01:27;;;;;;;6.68;2.75;;;;;;;1.08;63.89;94085.16;5031106;28;20115;-81
2022/03/23 04:03:54;;;;;;;5.90;2.13;;;;;;;0.49;64.26;94006.56;5031206;28;20529;-82
2022/03/23 04:06:21;;;;;;;7.93;2.92;;;;;;;1.04;63.89;94101.50;5030980;28;20041;-81
2022/03/23 04:08:48;;;;;;;8.80;2.70;;;;;;;0.76;64.48;94054.03;5030775;28;20057;-81
2022/03/23 04:11:15;;;;;;;5.80;3.35;;;;;;;0.35;64.98;94007.72;5031044;28;20041;-81
2022/03/23 04:13:43;;;;;;;26.52;10.82;;;;;;;0.87;65.76;94075.91;5030466;28;20487;-82
2022/03/23 04:16:10;;;;;;;43.70;18.75;;;;;;;0.41;65.67;93998.81;5030375;28;20466;-82
2022/03/23 04:18:40;;;;;;;32.17;10.85;;;;;;;0.57;65.79;94048.91;5031112;28;20144;-83
2022/03/23 04:21:12;;;;;;;37.30;13.82;;;;;;;0.79;67.15;94078.28;5031024;28;20057;-82
2022/03/23 04:23:40;;;;;;;26.02;10.57;;;;;;;0.94;67.56;94106.56;5030383;28;20449;-82
2022/03/23 04:26:07;;;;;;;51.78;22.65;;;;;;;0.97;68.07;94118.13;5030679;28;20051;-82
2022/03/23 04:28:35;;;;;;;5.50;2.65;;;;;;;0.51;67.85;94066.19;5030587;28;20053;-82
2022/03/23 04:31:04;;;;;;;15.93;6.18;;;;;;;0.78;68.60;94096.88;5030751;28;20561;-83
2022/03/23 04:33:34;;;;;;;5.93;2.90;;;;;;;0.35;68.63;94026.22;5030570;28;20049;-83
2022/03/23 04:36:07;;;;;;;16.60;9.15;;;;;;;0.39;69.54;94049.50;5030082;28;20128;-84
2022/03/23 04:38:34;;;;;;;5.70;2.78;;;;;;;0.70;69.34;94096.75;5026646;28;20079;-83
2022/03/23 04:41:04;;;;;;;7.85;3.22;;;;;;;0.85;69.82;94117.41;5028512;28;20137;-83
2022/03/23 04:43:36;;;;;;;6.60;3.38;;;;;;;0.65;70.42;94100.44;5030272;28;20053;-83
2022/03/23 04:46:10;;;;;;;7.35;2.78;;;;;;;0.87;71.00;94125.66;5028380;28;20057;-84
2022/03/23 04:48:37;;;;;;;7.70;2.60;;;;;;;0.28;70.89;94039.47;5027634;28;20107;-82
2022/03/23 04:51:09;;;;;;;7.75;3.00;;;;;;;0.18;70.77;94020.00;5029746;28;20518;-84
2022/03/23 04:53:38;;;;;;;10.18;3.25;;;;;;;0.30;70.97;94038.41;5029519;28;20053;-84
2022/03/23 04:56:06;;;;;;;9.98;3.40;;;;;;;0.54;70.58;94062.59;5029543;28;20057;-82
2022/03/23 04:58:42;;;;;;;6.25;3.13;;;;;;;1.02;70.12;94119.34;5029909;28;20410;-84
2022/03/23 05:01:24;;;;;;;6.90;2.88;;;;;;;0.89;70.73;94114.50;5029477;28;20065;-85
2022/03/23 05:04:05;;;;;;;9.30;3.10;;;;;;;0.64;69.65;94052.50;5029657;28;20552;-85
2022/03/23 05:06:41;;;;;;;5.78;3.13;;;;;;;1.01;69.67;94122.81;5028331;28;20057;-84
2022/03/23 05:09:10;;;;;;;13.73;3.65;;;;;;;0.55;70.32;94046.50;5029450;28;20060;-84
2022/03/23 05:11:37;;;;;;;7.38;3.10;;;;;;;0.46;71.34;94049.81;5030288;28;20056;-83
2022/03/23 05:14:04;;;;;;;9.45;4.70;;;;;;;0.59;70.59;94054.63;5029830;28;20053;-83
2022/03/23 05:16:35;;;;;;;6.13;2.88;;;;;;;0.73;70.85;94079.56;5030067;28;20136;-83
2022/03/23 05:19:02;;;;;;;5.75;3.53;;;;;;;1.30;69.86;94142.34;5029701;28;20502;-83
2022/03/23 05:21:30;;;;;;;8.10;3.03;;;;;;;1.13;71.46;94126.06;5029857;28;20064;-83
2022/03/23 05:23:58;;;;;;;9.93;4.47;;;;;;;1.23;71.56;94143.78;5029456;28;20050;-82
2022/03/23 05:26:25;;;;;;;7.40;4.32;;;;;;;0.93;70.65;94084.72;5029694;28;20041;-83
2022/03/23 05:28:58;;;;;;;8.77;3.03;;;;;;;1.35;70.94;94120.91;5029782;28;20071;-84
2022/03/23 05:31:30;;;;;;;6.55;3.90;;;;;;;1.00;70.53;94075.66;5029270;28;20045;-84
2022/03/23 05:34:01;;;;;;;10.18;3.83;;;;;;;1.62;70.11;94138.00;5029221;28;20056;-83
2022/03/23 05:36:30;;;;;;;8.15;3.83;;;;;;;1.72;69.65;94148.94;5029169;28;20841;-82
2022/03/23 05:39:02;;;;;;;6.97;3.75;;;;;;;1.11;70.17;94041.06;5029767;28;20134;-83
2022/03/23 05:41:29;;;;;;;8.38;3.38;;;;;;;1.73;69.69;94117.59;5029695;28;20902;-82
2022/03/23 05:43:57;;;;;;;9.95;4.10;;;;;;;1.26;69.75;94052.44;5029803;28;20439;-82
2022/03/23 05:46:25;;;;;;;7.70;3.63;;;;;;;1.28;69.54;94037.09;5029250;28;20095;-82
2022/03/23 05:48:54;;;;;;;9.85;3.83;;;;;;;1.78;69.27;94113.88;5029680;28;20475;-83
2022/03/23 05:51:21;;;;;;;11.32;3.22;;;;;;;1.86;68.68;94140.16;5029050;28;20045;-83
2022/03/23 05:53:48;;;;;;;6.10;3.45;;;;;;;1.49;69.31;94056.44;5028597;28;20446;-81
2022/03/23 05:56:17;;;;;;;7.65;4.13;;;;;;;2.11;69.05;94152.44;5030398;28;20069;-84
2022/03/23 05:58:51;;;;;;;6.82;3.45;;;;;;;2.02;69.35;94128.69;5029856;28;20051;-84
2022/03/23 06:01:19;;;;;;;6.50;3.08;;;;;;;1.85;69.07;94077.75;5029319;28;20049;-83
2022/03/23 06:03:49;;;;;;;10.55;3.55;;;;;;;1.54;69.21;94044.16;5029702;28;20053;-83
2022/03/23 06:06:16;;;;;;;7.35;3.53;;;;;;;2.23;68.10;94133.59;5029715;28;20041;-83
2022/03/23 06:08:46;;;;;;;9.43;2.95;;;;;;;1.84;67.38;94063.50;5030393;28;20060;-83
2022/03/23 06:11:13;;;;;;;12.20;4.28;;;;;;;2.33;68.22;94118.41;5038421;28;20113;-83
2022/03/23 06:13:42;;;;;;;6.80;3.13;;;;;;;2.51;68.17;94151.44;5042390;28;20525;-83
2022/03/23 06:16:09;;;;;;;13.98;5.85;;;;;;;2.39;67.16;94115.31;5029409;28;20063;-83
2022/03/23 06:18:36;;;;;;;11.20;5.85;;;;;;;2.20;67.18;94078.13;5032157;28;20049;-83
2022/03/23 06:21:03;;;;;;;15.35;7.05;;;;;;;2.86;68.00;94154.31;5032683;28;20053;-81
2022/03/23 06:23:30;;;;;;;12.65;5.55;;;;;;;2.42;65.41;94053.38;5032350;28;20516;-83
2022/03/23 06:25:57;;;;;;;7.35;3.55;;;;;;;3.00;65.23;94150.53;5032440;28;20053;-83
2022/03/23 06:28:25;;;;;;;8.07;3.70;;;;;;;2.71;65.56;94077.84;5032397;28;20085;-80
2022/03/23 06:30:55;;;;;;;8.05;3.92;;;;;;;3.06;64.78;94139.03;5032131;28;20049;-83
2022/03/23 06:33:23;;;;;;;6.15;3.25;;;;;;;2.52;65.98;94068.56;5032575;28;20052;-84
2022/03/23 06:35:49;;;;;;;6.85;2.65;;;;;;;2.67;64.96;94074.78;5032768;28;20060;-83
2022/03/23 06:38:29;;;;;;;5.82;3.05;;;;;;;2.77;63.68;94062.06;5032640;28;20049;-85
2022/03/23 06:40:58;;;;;;;6.40;3.13;;;;;;;2.66;63.68;94068.13;5032107;28;20489;-84
2022/03/23 06:43:26;;;;;;;6.28;3.47;;;;;;;2.89;63.72;94084.72;5032570;28;20425;-83
2022/03/23 06:45:54;;;;;;;6.88;3.58;;;;;;;3.17;64.89;94146.47;5030845;28;20197;-83
2022/03/23 06:48:21;;;;;;;15.27;6.38;;;;;;;3.15;64.35;94110.22;5030457;28;20052;-82
2022/03/23 06:50:52;;;;;;;6.85;3.35;;;;;;;3.30;63.82;94140.25;5030939;28;20068;-84
2022/03/23 06:53:19;;;;;;;15.55;6.72;;;;;;;2.88;63.97;94081.38;5032007;28;20081;-84
2022/03/23 06:55:47;;;;;;;8.98;4.07;;;;;;;3.19;62.74;94096.31;5032397;28;20053;-81
2022/03/23 06:58:14;;;;;;;12.50;5.78;;;;;;;3.11;64.58;94077.66;5032244;28;20122;-83
2022/03/23 07:00:42;;;;;;;9.48;4.43;;;;;;;3.52;64.32;94149.19;5032324;28;20055;-84
2022/03/23 07:03:11;;;;;;;8.95;4.60;;;;;;;3.44;64.43;94116.09;5031870;28;20103;-83
2022/03/23 07:05:38;;;;;;;11.02;4.32;;;;;;;3.69;63.26;94141.75;5032237;28;20081;-84
2022/03/23 07:10:51;;;;;;;18.55;9.38;;;;;;;3.50;61.92;94097.75;5031739;28;20051;-84
2022/03/23 07:13:18;;;;;;;29.55;12.50;;;;;;;3.54;62.46;94101.59;5032124;28;20148;-82
2022/03/23 07:15:47;;;;;;;9.57;5.15;;;;;;;4.15;61.29;94156.94;5032083;28;20053;-82
2022/03/23 07:18:15;;;;;;;12.15;7.30;;;;;;;3.85;60.24;94083.44;5031338;28;20060;-81
2022/03/23 07:20:42;;;;;;;9.95;4.57;;;;;;;4.15;59.74;94179.84;5032089;28;20046;-81
2022/03/23 07:23:09;;;;;;;7.82;3.55;;;;;;;3.94;60.22;94149.63;5031484;28;20058;-80
2022/03/23 07:25:37;;;;;;;6.55;3.75;;;;;;;4.15;61.77;94162.03;5031133;28;20053;-82
2022/03/23 07:28:05;;;;;;;8.25;3.33;;;;;;;4.03;61.36;94163.19;5031183;28;20505;-82
2022/03/23 07:30:35;;;;;;;7.38;3.67;;;;;;;3.74;61.04;94099.72;5031040;28;20503;-82
2022/03/23 07:33:05;;;;;;;7.53;3.38;;;;;;;3.69;62.49;94094.28;5031653;28;20065;-82
2022/03/23 07:35:34;;;;;;;12.77;7.10;;;;;;;3.91;61.85;94132.91;5031293;28;20115;-81
2022/03/23 07:38:07;;;;;;;6.60;3.17;;;;;;;3.77;62.18;94083.38;5031084;28;20053;-83
2022/03/23 07:40:36;;;;;;;11.82;5.43;;;;;;;4.21;61.88;94166.53;5031172;28;20144;-84
2022/03/23 07:43:04;;;;;;;7.28;3.20;;;;;;;3.74;60.93;94114.97;5031167;28;20049;-84
2022/03/23 07:45:34;;;;;;;7.78;3.40;;;;;;;4.18;60.76;94166.03;5030913;28;20049;-82
2022/03/23 07:48:01;;;;;;;10.57;3.70;;;;;;;4.07;59.95;94096.66;5031446;28;20057;-81
2022/03/23 07:50:32;;;;;;;9.32;3.80;;;;;;;4.42;59.68;94117.09;5031437;28;20049;-84
2022/03/23 07:53:13;;;;;;;7.32;4.03;;;;;;;4.36;60.61;94178.75;5030406;28;20061;-85
2022/03/23 07:55:48;;;;;;;9.63;4.80;;;;;;;4.51;58.12;94103.47;5031406;28;20064;-83
2022/03/23 07:58:16;;;;;;;10.57;5.43;;;;;;;4.34;60.05;94178.06;5030854;28;20095;-82
2022/03/23 08:00:45;;;;;;;9.43;4.90;;;;;;;4.06;60.11;94188.31;5030957;28;20613;-80
2022/03/23 08:03:12;;;;;;;12.65;6.70;;;;;;;4.08;61.16;94171.19;5030717;28;20053;-80
2022/03/23 08:05:40;;;;;;;9.77;4.68;;;;;;;4.36;58.84;94173.66;5031417;28;20053;-81
2022/03/23 08:08:09;;;;;;;8.35;4.13;;;;;;;4.45;58.30;94157.50;5031240;28;20061;-81
2022/03/23 08:10:40;;;;;;;13.38;4.88;;;;;;;4.35;58.41;94111.78;5031337;28;20045;-80
2022/03/23 08:13:09;;;;;;;13.20;6.68;;;;;;;4.22;57.62;94103.75;5031209;28;20059;-85
2022/03/23 08:15:37;;;;;;;10.68;6.65;;;;;;;3.67;58.81;94065.69;5031272;28;20045;-84
2022/03/23 08:18:08;;;;;;;12.60;7.28;;;;;;;4.26;59.51;94123.66;5030930;28;20056;-85
2022/03/23 08:20:37;;;;;;;7.82;4.40;;;;;;;4.80;57.12;94183.81;5030622;28;20513;-85
2022/03/23 08:23:10;;;;;;;8.65;4.95;;;;;;;4.26;58.53;94105.84;5030509;28;20057;-85
2022/03/23 08:25:42;;;;;;;7.55;3.78;;;;;;;4.89;58.24;94196.59;5030159;28;20050;-85
2022/03/23 08:28:10;;;;;;;10.98;3.45;;;;;;;4.69;58.18;94194.25;5029914;28;20075;-85
2022/03/23 08:30:38;;;;;;;12.57;4.72;;;;;;;4.56;59.04;94197.16;5030983;28;20057;-85
2022/03/23 08:33:07;;;;;;;9.80;5.03;;;;;;;4.03;59.11;94137.78;5030728;28;20069;-85
2022/03/23 08:35:46;;;;;;;11.98;6.03;;;;;;;4.31;58.80;94151.22;5030809;28;20087;-86
2022/03/23 08:38:31;;;;;;;19.52;9.45;;;;;;;4.22;59.05;94163.03;5030317;28;20191;-85
2022/03/23 08:41:07;;;;;;;10.75;5.32;;;;;;;4.50;58.11;94127.31;5029875;28;20087;-87
2022/03/23 08:43:36;;;;;;;;;;;;;;;5.07;57.11;94227.09;5030640;28;20087;-86
2022/03/23 08:46:07;;;;;;;9.52;4.90;;;;;;;4.70;57.24;94170.38;5029806;28;20393;-86
2022/03/23 08:48:43;;;;;;;5.50;3.00;;;;;;;4.45;56.48;94132.06;5030562;28;20443;-85
2022/03/23 08:51:14;;;;;;;6.05;3.75;;;;;;;5.13;56.31;94231.59;5029875;28;20053;-86
2022/03/23 08:53:44;;;;;;;8.07;3.50;;;;;;;4.14;56.87;94122.28;5029467;28;20061;-83
2022/03/23 08:56:12;;;;;;;6.55;3.60;;;;;;;4.39;56.07;94140.25;5030176;28;20491;-86
2022/03/23 08:58:47;;;;;;;7.57;3.50;;;;;;;5.20;56.28;94219.06;5030036;28;20072;-85
2022/03/23 09:01:25;;;;;;;8.52;3.33;;;;;;;5.32;56.26;94210.19;5030001;28;20053;-85
2022/03/23 09:03:55;;;;;;;6.45;3.45;;;;;;;5.31;54.92;94197.59;5029514;28;20108;-84
2022/03/23 09:06:24;;;;;;;12.00;6.25;;;;;;;5.69;55.05;94192.97;5029633;28;20418;-83
2022/03/23 09:09:05;;;;;;;4.70;2.80;;;;;;;5.54;52.37;94185.13;5029910;28;20053;-82
2022/03/23 09:11:43;;;;;;;7.15;3.28;;;;;;;5.35;54.02;94153.03;5030108;28;20147;-83
2022/03/23 09:14:13;;;;;;;10.90;3.92;;;;;;;5.18;54.79;94223.50;5029544;28;20045;-85
2022/03/23 09:16:47;;;;;;;6.45;3.42;;;;;;;4.62;55.40;94145.69;5030718;28;20123;-86
2022/03/23 09:19:19;;;;;;;10.77;5.47;;;;;;;5.56;54.41;94195.94;5042459;28;20049;-85
2022/03/23 09:21:59;;;;;;;9.88;4.10;;;;;;;6.08;52.59;94222.28;5044944;28;20060;-86
2022/03/23 09:24:41;;;;;;;11.85;5.88;;;;;;;5.70;53.44;94220.06;5029352;28;20101;-85
2022/03/23 09:29:53;;;;;;;9.95;5.45;;;;;;;5.34;54.21;94154.00;5108709;23;20052;-85
2022/03/23 09:32:31;;;;;;;9.30;4.55;;;;;;;5.76;54.15;94185.50;5009417;28;20470;-87
2022/03/23 09:35:15;;;;;;;10.00;4.05;;;;;;;5.39;53.09;94062.63;5009566;28;20057;-86
2022/03/23 09:37:53;;;;;;;6.95;3.88;;;;;;;6.67;50.38;94202.72;5009616;28;20050;-85
2022/03/23 09:40:31;;;;;;;8.85;4.57;;;;;;;6.31;49.97;94162.19;5009609;28;20058;-85
2022/03/23 09:43:01;;;;;;;9.43;4.30;;;;;;;6.01;49.49;94162.59;5009601;28;20053;-85
2022/03/23 09:45:51;;;;;;;7.65;4.05;;;;;;;6.43;51.04;94186.41;5009321;28;20053;-86
2022/03/23 09:48:34;;;;;;;6.80;3.92;;;;;;;6.35;49.29;94189.75;5009638;28;20096;-86
2022/03/23 09:51:09;;;;;;;10.48;4.22;;;;;;;6.61;49.80;94182.94;5009554;28;20057;-85
2022/03/23 09:53:40;;;;;;;6.27;3.10;;;;;;;6.19;48.64;94111.47;5029122;28;20513;-84
2022/03/23 09:56:22;;;;;;;6.57;3.58;;;;;;;6.18;47.41;94153.25;5033153;28;20453;-85
2022/03/23 09:58:54;;;;;;;8.43;4.47;;;;;;;6.04;49.81;94131.72;5032633;28;20425;-84
2022/03/23 10:02:19;;;;;;;13.73;6.35;;;;;;;6.28;48.97;94188.81;5029974;28;20053;-85
2022/03/23 10:05:38;;;;;;;11.43;4.20;;;;;;;6.20;49.06;94125.81;5032484;28;20064;-85
2022/03/23 10:09:10;;;;;;;9.13;4.70;;;;;;;6.93;47.79;94166.75;5032797;28;20411;-86
2022/03/23 10:12:49;;;;;;;9.48;4.47;;;;;;;6.67;49.27;94167.75;5032541;28;20077;-84
2022/03/23 10:15:54;;;;;;;11.55;4.32;;;;;;;6.89;47.56;94155.25;5032679;28;20049;-86
2022/03/23 10:18:53;;;;;;;6.78;3.38;;;;;;;6.24;48.95;94114.34;5033234;28;20103;-85
2022/03/23 10:21:24;;;;;;;8.93;3.97;;;;;;;5.93;49.34;94086.88;5030908;28;20053;-86
2022/03/23 10:24:30;;;;;;;7.38;3.65;;;;;;;5.59;48.67;94060.56;5032591;28;20499;-84
2022/03/23 10:27:00;;;;;;;8.43;4.38;;;;;;;6.14;47.61;94086.44;5017100;28;20046;-84
2022/03/23 10:29:48;;;;;;;9.85;5.07;;;;;;;5.81;47.17;94055.00;5032490;28;20506;-85
2022/03/23 10:32:25;;;;;;;8.07;4.63;;;;;;;6.66;47.71;94165.34;5032118;28;20068;-87
2022/03/23 10:35:04;;;;;;;8.00;3.90;;;;;;;6.73;47.37;94178.28;5032092;28;20060;-85
2022/03/23 10:37:44;;;;;;;8.00;3.88;;;;;;;6.64;48.34;94159.63;5032343;28;20050;-86
2022/03/23 10:40:20;;;;;;;10.27;4.22;;;;;;;6.63;48.24;94158.81;5032265;28;20127;-84
2022/03/23 10:42:55;;;;;;;8.32;4.28;;;;;;;6.97;46.54;94158.75;5032591;28;20135;-85
2022/03/23 10:45:24;;;;;;;7.32;4.60;;;;;;;6.78;46.80;94153.88;5032435;28;20049;-85
2022/03/23 10:48:13;;;;;;;9.43;3.90;;;;;;;6.46;45.58;94104.44;5031865;28;20049;-86
2022/03/23 10:50:53;;;;;;;11.90;4.50;;;;;;;6.98;44.98;94097.28;5032102;28;20400;-85
2022/03/23 10:53:39;;;;;;;9.18;4.65;;;;;;;7.00;43.68;94092.03;5032478;28;20064;-85
2022/03/23 10:56:15;;;;;;;7.70;4.07;;;;;;;7.32;43.43;94114.09;5032098;28;20061;-85
2022/03/23 10:58:54;;;;;;;8.10;3.72;;;;;;;7.37;42.21;94100.00;5032088;28;20415;-85
2022/03/23 11:01:59;;;;;;;13.70;5.82;;;;;;;7.79;42.51;94159.41;5032143;28;20412;-86
2022/03/23 11:04:38;;;;;;;7.53;3.47;;;;;;;8.16;40.52;94161.25;5030377;28;20053;-86
2022/03/23 11:07:29;;;;;;;8.35;3.70;;;;;;;7.49;40.78;94137.00;5031495;28;20068;-86
2022/03/23 11:15:52;;;;;;;10.00;4.38;;;;;;;6.93;41.24;94049.25;5031994;28;20083;-85
2022/03/23 11:18:43;;;;;;;9.23;3.63;;;;;;;7.48;42.22;94068.97;5030885;28;20049;-86
2022/03/23 11:23:56;;;;;;;11.60;3.97;;;;;;;8.11;39.46;94120.00;5035277;23;20136;-85
2022/03/23 11:26:34;;;;;;;7.38;3.38;;;;;;;7.65;38.56;94076.53;5011750;28;20056;-86
2022/03/23 11:29:10;;;;;;;5.95;3.60;;;;;;;7.79;39.68;94113.38;5011641;28;20466;-85
2022/03/23 11:31:49;;;;;;;8.02;4.18;;;;;;;7.92;40.43;94110.25;5011771;28;20061;-87
2022/03/23 11:34:29;;;;;;;5.90;3.45;;;;;;;7.25;40.40;93992.25;5011203;28;20050;-85
2022/03/23 11:37:06;;;;;;;8.60;3.90;;;;;;;8.01;40.72;94086.22;5011700;28;20104;-87
2022/03/23 11:39:44;;;;;;;7.55;4.50;;;;;;;7.75;41.03;94052.34;5011559;28;20450;-87
2022/03/23 11:42:22;;;;;;;8.75;4.30;;;;;;;8.07;42.14;94087.28;5016195;28;20048;-86
2022/03/23 11:44:51;;;;;;;7.68;3.00;;;;;;;7.34;39.45;94094.28;5018735;28;20053;-83
2022/03/23 11:47:38;;;;;;;8.85;3.70;;;;;;;7.67;39.24;94033.66;5020741;28;20049;-85
2022/03/23 11:52:55;;;;;;;8.45;3.25;;;;;;;7.92;38.64;94018.94;5028676;23;20095;-85
2022/03/23 11:55:41;;;;;;;6.75;3.75;;;;;;;7.69;38.63;94045.31;5030237;28;20501;-86
2022/03/23 11:58:21;;;;;;;6.05;3.17;;;;;;;7.79;38.79;94013.63;5030521;28;20049;-86
2022/03/23 12:04:07;;;;;;;6.68;2.47;;;;;;;8.69;36.71;94088.03;5026822;28;20126;-85
2022/03/23 12:06:48;;;;;;;4.93;3.03;;;;;;;8.93;37.24;94091.28;5030837;28;20045;-86
2022/03/23 12:09:40;;;;;;;6.45;3.38;;;;;;;8.41;36.33;94055.28;5037555;28;20045;-85
2022/03/23 12:12:14;;;;;;;6.43;3.30;;;;;;;8.15;38.27;94003.53;5047888;28;20060;-86
2022/03/23 12:14:51;;;;;;;7.38;3.13;;;;;;;7.98;38.70;94061.75;5028170;28;20107;-85
2022/03/23 12:17:31;;;;;;;8.93;3.38;;;;;;;8.17;38.48;94003.38;5030451;28;20049;-85
2022/03/23 12:20:05;;;;;;;7.05;3.75;;;;;;;7.97;38.16;94014.09;5030440;28;20156;-85
2022/03/23 12:23:18;;;;;;;6.80;3.40;;;;;;;8.37;38.28;94046.38;5030182;28;20057;-85
2022/03/23 12:26:11;;;;;;;6.90;3.58;;;;;;;8.60;38.93;94071.94;5030393;28;20063;-85
2022/03/23 12:28:51;;;;;;;6.68;3.38;;;;;;;8.78;38.24;94051.13;5030051;28;20049;-85
2022/03/23 12:31:35;;;;;;;9.18;4.00;;;;;;;8.36;38.01;94001.25;5030292;28;20061;-84
2022/03/23 12:34:16;;;;;;;14.30;6.85;;;;;;;8.19;37.25;93972.50;5030638;28;20057;-84